sensor_id;sensor_type;location;lat;lon;timestamp;pressure;altitude;pressure_sealevel;temperature;humidity
22743;BME280;11538;48.884;8.696;2023-01-28T00:01:30;99387.22;;;1.62;90.26
22743;BME280;11538;48.884;8.696;2023-01-28T00:03:56;99378.59;;;1.59;90.30
22743;BME280;11538;48.884;8.696;2023-01-28T00:06:23;99379.66;;;1.58;90.41
22743;BME280;11538;48.884;8.696;2023-01-28T00:08:51;99376.97;;;1.58;90.77
22743;BME280;11538;48.884;8.696;2023-01-28T00:11:17;99380.84;;;1.63;90.47
22743;BME280;11538;48.884;8.696;2023-01-28T00:13:44;99384.91;;;1.65;90.51
22743;BME280;11538;48.884;8.696;2023-01-28T00:16:11;99383.13;;;1.59;90.13
22743;BME280;11538;48.884;8.696;2023-01-28T00:18:38;99396.75;;;1.57;90.59
22743;BME280;11538;48.884;8.696;2023-01-28T00:21:08;99391.38;;;1.57;90.46
22743;BME280;11538;48.884;8.696;2023-01-28T00:23:37;99385.44;;;1.55;90.83
22743;BME280;11538;48.884;8.696;2023-01-28T00:26:07;99387.69;;;1.58;91.08
22743;BME280;11538;48.884;8.696;2023-01-28T00:28:35;99390.34;;;1.58;91.07
22743;BME280;11538;48.884;8.696;2023-01-28T00:31:10;99388.72;;;1.57;91.07
22743;BME280;11538;48.884;8.696;2023-01-28T00:33:38;99385.22;;;1.57;90.81
22743;BME280;11538;48.884;8.696;2023-01-28T00:36:05;99386.63;;;1.59;91.12
22743;BME280;11538;48.884;8.696;2023-01-28T00:38:32;99395.91;;;1.57;90.81
22743;BME280;11538;48.884;8.696;2023-01-28T00:43:36;99386.03;;;1.57;91.33
22743;BME280;11538;48.884;8.696;2023-01-28T00:46:04;99383.38;;;1.57;91.31
22743;BME280;11538;48.884;8.696;2023-01-28T00:48:34;99385.81;;;1.59;91.29
22743;BME280;11538;48.884;8.696;2023-01-28T00:51:01;99389.31;;;1.59;91.45
22743;BME280;11538;48.884;8.696;2023-01-28T00:53:28;99388.84;;;1.63;91.37
22743;BME280;11538;48.884;8.696;2023-01-28T00:55:55;99371.84;;;1.57;90.96
22743;BME280;11538;48.884;8.696;2023-01-28T00:58:22;99381.50;;;1.58;91.39
22743;BME280;11538;48.884;8.696;2023-01-28T01:00:52;99381.28;;;1.59;91.27
22743;BME280;11538;48.884;8.696;2023-01-28T01:03:19;99381.28;;;1.59;90.93
22743;BME280;11538;48.884;8.696;2023-01-28T01:05:46;99383.13;;;1.59;91.11
22743;BME280;11538;48.884;8.696;2023-01-28T01:08:13;99383.13;;;1.59;91.50
22743;BME280;11538;48.884;8.696;2023-01-28T01:10:40;99372.44;;;1.59;91.48
22743;BME280;11538;48.884;8.696;2023-01-28T01:13:07;99372.88;;;1.56;91.25
22743;BME280;11538;48.884;8.696;2023-01-28T01:15:34;99379.28;;;1.55;91.64
22743;BME280;11538;48.884;8.696;2023-01-28T01:18:01;99385.66;;;1.54;91.88
22743;BME280;11538;48.884;8.696;2023-01-28T01:20:28;99379.28;;;1.55;92.02
22743;BME280;11538;48.884;8.696;2023-01-28T01:22:58;99383.97;;;1.59;92.89
22743;BME280;11538;48.884;8.696;2023-01-28T01:25:25;99382.69;;;1.62;93.55
22743;BME280;11538;48.884;8.696;2023-01-28T01:27:52;99390.50;;;1.64;94.48
22743;BME280;11538;48.884;8.696;2023-01-28T01:30:19;99392.56;;;1.62;95.02
22743;BME280;11538;48.884;8.696;2023-01-28T01:32:47;99389.31;;;1.59;94.73
22743;BME280;11538;48.884;8.696;2023-01-28T01:35:13;99386.03;;;1.57;94.41
22743;BME280;11538;48.884;8.696;2023-01-28T01:37:42;99391.97;;;1.59;94.35
22743;BME280;11538;48.884;8.696;2023-01-28T01:40:10;99391.28;;;1.64;94.57
22743;BME280;11538;48.884;8.696;2023-01-28T01:42:37;99386.38;;;1.61;94.29
22743;BME280;11538;48.884;8.696;2023-01-28T01:45:11;99391.16;;;1.59;94.14
22743;BME280;11538;48.884;8.696;2023-01-28T01:47:56;99395.25;;;1.62;94.08
22743;BME280;11538;48.884;8.696;2023-01-28T01:52:57;99388.25;;;1.60;93.88
22743;BME280;11538;48.884;8.696;2023-01-28T01:55:28;99390.09;;;1.60;93.90
22743;BME280;11538;48.884;8.696;2023-01-28T01:57:57;99389.66;;;1.63;94.42
22743;BME280;11538;48.884;8.696;2023-01-28T02:00:27;99390.69;;;1.62;95.01
22743;BME280;11538;48.884;8.696;2023-01-28T02:02:54;99392.13;;;1.65;94.63
22743;BME280;11538;48.884;8.696;2023-01-28T02:05:22;99386.78;;;1.65;95.11
22743;BME280;11538;48.884;8.696;2023-01-28T02:07:52;99379.34;;;1.67;94.66
22743;BME280;11538;48.884;8.696;2023-01-28T02:10:21;99387.81;;;1.64;94.75
22743;BME280;11538;48.884;8.696;2023-01-28T02:12:54;99384.53;;;1.62;94.76
22743;BME280;11538;48.884;8.696;2023-01-28T02:15:24;99388.47;;;1.59;94.83
22743;BME280;11538;48.884;8.696;2023-01-28T02:17:51;99388.03;;;1.62;95.38
22743;BME280;11538;48.884;8.696;2023-01-28T02:20:24;99383.38;;;1.57;96.27
22743;BME280;11538;48.884;8.696;2023-01-28T02:31:22;99390.06;;;1.48;95.25
22743;BME280;11538;48.884;8.696;2023-01-28T02:33:58;99395.56;;;1.53;95.03
22743;BME280;11538;48.884;8.696;2023-01-28T02:39:07;99398.28;;;1.65;95.17
22743;BME280;11538;48.884;8.696;2023-01-28T02:41:42;99401.97;;;1.64;94.87
22743;BME280;11538;48.884;8.696;2023-01-28T02:44:11;99401.41;;;1.62;94.92
22743;BME280;11538;48.884;8.696;2023-01-28T02:46:38;99404.66;;;1.64;95.26
22743;BME280;11538;48.884;8.696;2023-01-28T02:49:44;99404.44;;;1.66;95.28
22743;BME280;11538;48.884;8.696;2023-01-28T02:52:31;99399.31;;;1.64;95.31
22743;BME280;11538;48.884;8.696;2023-01-28T02:58:18;99407.72;;;1.68;95.69
22743;BME280;11538;48.884;8.696;2023-01-28T03:00:53;99407.25;;;1.71;96.04
22743;BME280;11538;48.884;8.696;2023-01-28T03:06:31;99401.41;;;1.62;96.98
22743;BME280;11538;48.884;8.696;2023-01-28T03:09:04;99409.66;;;1.60;97.54
22743;BME280;11538;48.884;8.696;2023-01-28T03:11:58;99402.56;;;1.66;98.06
22743;BME280;11538;48.884;8.696;2023-01-28T03:14:50;99407.78;;;1.61;98.49
22743;BME280;11538;48.884;8.696;2023-01-28T03:20:34;99409.50;;;1.55;98.67
22743;BME280;11538;48.884;8.696;2023-01-28T03:23:28;99408.22;;;1.58;98.73
22743;BME280;11538;48.884;8.696;2023-01-28T03:26:20;99411.16;;;1.56;99.86
22743;BME280;11538;48.884;8.696;2023-01-28T03:29:08;99415.06;;;1.54;100.00
22743;BME280;11538;48.884;8.696;2023-01-28T03:31:55;99417.75;;;1.54;99.31
22743;BME280;11538;48.884;8.696;2023-01-28T03:34:42;99420.22;;;1.55;99.53
22743;BME280;11538;48.884;8.696;2023-01-28T03:37:28;99416.50;;;1.56;99.73
22743;BME280;11538;48.884;8.696;2023-01-28T03:40:02;99419.16;;;1.56;100.00
22743;BME280;11538;48.884;8.696;2023-01-28T03:42:30;99428.22;;;1.55;100.00
22743;BME280;11538;48.884;8.696;2023-01-28T03:44:58;99413.22;;;1.54;100.00
22743;BME280;11538;48.884;8.696;2023-01-28T03:47:28;99426.59;;;1.54;100.00
22743;BME280;11538;48.884;8.696;2023-01-28T03:49:57;99415.66;;;1.56;100.00
22743;BME280;11538;48.884;8.696;2023-01-28T03:52:30;99418.56;;;1.54;100.00
22743;BME280;11538;48.884;8.696;2023-01-28T03:54:58;99420.88;;;1.51;100.00
22743;BME280;11538;48.884;8.696;2023-01-28T03:57:26;99422.28;;;1.53;100.00
22743;BME280;11538;48.884;8.696;2023-01-28T03:59:53;99418.56;;;1.54;100.00
22743;BME280;11538;48.884;8.696;2023-01-28T04:02:21;99420.88;;;1.51;100.00
22743;BME280;11538;48.884;8.696;2023-01-28T04:04:49;99419.69;;;1.46;100.00
22743;BME280;11538;48.884;8.696;2023-01-28T04:07:16;99424.22;;;1.46;100.00
22743;BME280;11538;48.884;8.696;2023-01-28T04:09:43;99422.34;;;1.46;100.00
22743;BME280;11538;48.884;8.696;2023-01-28T04:12:11;99426.91;;;1.46;100.00
22743;BME280;11538;48.884;8.696;2023-01-28T04:14:39;99428.97;;;1.44;100.00
22743;BME280;11538;48.884;8.696;2023-01-28T04:17:07;99433.50;;;1.43;100.00
22743;BME280;11538;48.884;8.696;2023-01-28T04:19:36;99435.97;;;1.45;100.00
22743;BME280;11538;48.884;8.696;2023-01-28T04:22:05;99438.41;;;1.46;100.00
22743;BME280;11538;48.884;8.696;2023-01-28T04:24:32;99444.56;;;1.47;100.00
22743;BME280;11538;48.884;8.696;2023-01-28T04:26:59;99434.47;;;1.49;100.00
22743;BME280;11538;48.884;8.696;2023-01-28T04:29:26;99438.41;;;1.46;100.00
22743;BME280;11538;48.884;8.696;2023-01-28T04:31:53;99443.53;;;1.48;100.00
22743;BME280;11538;48.884;8.696;2023-01-28T04:34:20;99439.00;;;1.49;100.00
22743;BME280;11538;48.884;8.696;2023-01-28T04:36:46;99435.50;;;1.48;100.00
22743;BME280;11538;48.884;8.696;2023-01-28T04:39:13;99439.22;;;1.47;100.00
22743;BME280;11538;48.884;8.696;2023-01-28T04:41:40;99444.00;;;1.45;100.00
22743;BME280;11538;48.884;8.696;2023-01-28T04:44:07;99446.72;;;1.38;100.00
22743;BME280;11538;48.884;8.696;2023-01-28T04:46:34;99446.78;;;1.31;100.00
22743;BME280;11538;48.884;8.696;2023-01-28T04:49:01;99453.34;;;1.36;100.00
22743;BME280;11538;48.884;8.696;2023-01-28T04:51:29;99453.34;;;1.36;100.00
22743;BME280;11538;48.884;8.696;2023-01-28T04:53:56;99455.19;;;1.35;100.00
22743;BME280;11538;48.884;8.696;2023-01-28T04:56:23;99456.00;;;1.36;100.00
22743;BME280;11538;48.884;8.696;2023-01-28T04:58:50;99447.59;;;1.32;100.00
22743;BME280;11538;48.884;8.696;2023-01-28T05:01:17;99447.59;;;1.32;100.00
22743;BME280;11538;48.884;8.696;2023-01-28T05:03:44;99443.31;;;1.31;100.00
22743;BME280;11538;48.884;8.696;2023-01-28T05:06:10;99455.19;;;1.35;100.00
22743;BME280;11538;48.884;8.696;2023-01-28T05:08:37;99463.59;;;1.39;100.00
22743;BME280;11538;48.884;8.696;2023-01-28T05:11:04;99460.31;;;1.37;100.00
22743;BME280;11538;48.884;8.696;2023-01-28T05:13:31;99459.50;;;1.36;100.00
22743;BME280;11538;48.884;8.696;2023-01-28T05:15:58;99461.19;;;1.30;100.00
22743;BME280;11538;48.884;8.696;2023-01-28T05:18:25;99463.25;;;1.28;100.00
22743;BME280;11538;48.884;8.696;2023-01-28T05:20:52;99461.56;;;1.34;100.00
22743;BME280;11538;48.884;8.696;2023-01-28T05:23:19;99463.19;;;1.35;100.00
22743;BME280;11538;48.884;8.696;2023-01-28T05:25:45;99463.19;;;1.35;100.00
22743;BME280;11538;48.884;8.696;2023-01-28T05:28:12;99466.13;;;1.34;100.00
22743;BME280;11538;48.884;8.696;2023-01-28T05:30:39;99465.94;;;1.28;100.00
22743;BME280;11538;48.884;8.696;2023-01-28T05:33:06;99472.09;;;1.29;100.00
22743;BME280;11538;48.884;8.696;2023-01-28T05:35:33;99465.34;;;1.26;100.00
22743;BME280;11538;48.884;8.696;2023-01-28T05:38:02;99469.66;;;1.27;100.00
22743;BME280;11538;48.884;8.696;2023-01-28T05:40:29;99470.03;;;1.31;100.00
22743;BME280;11538;48.884;8.696;2023-01-28T05:42:56;99480.72;;;1.31;100.00
22743;BME280;11538;48.884;8.696;2023-01-28T05:45:23;99480.34;;;1.27;100.00
22743;BME280;11538;48.884;8.696;2023-01-28T05:47:50;99480.13;;;1.29;100.00
22743;BME280;11538;48.884;8.696;2023-01-28T05:50:17;99487.06;;;1.37;100.00
22743;BME280;11538;48.884;8.696;2023-01-28T05:52:44;99482.06;;;1.40;100.00
22743;BME280;11538;48.884;8.696;2023-01-28T05:55:11;99475.91;;;1.40;100.00
22743;BME280;11538;48.884;8.696;2023-01-28T05:57:38;99480.66;;;1.38;100.00
22743;BME280;11538;48.884;8.696;2023-01-28T06:00:05;99482.50;;;1.37;100.00
22743;BME280;11538;48.884;8.696;2023-01-28T06:02:32;99495.66;;;1.39;100.00
22743;BME280;11538;48.884;8.696;2023-01-28T06:04:59;99493.81;;;1.39;100.00
22743;BME280;11538;48.884;8.696;2023-01-28T06:07:26;99495.06;;;1.37;100.00
22743;BME280;11538;48.884;8.696;2023-01-28T06:09:53;99497.75;;;1.37;100.00
22743;BME280;11538;48.884;8.696;2023-01-28T06:12:20;99498.19;;;1.34;100.00
22743;BME280;11538;48.884;8.696;2023-01-28T06:14:47;99499.81;;;1.35;100.00
22743;BME280;11538;48.884;8.696;2023-01-28T06:17:15;99514.63;;;1.30;100.00
22743;BME280;11538;48.884;8.696;2023-01-28T06:19:42;99518.34;;;1.29;100.00
22743;BME280;11538;48.884;8.696;2023-01-28T06:22:10;99509.53;;;1.29;100.00
22743;BME280;11538;48.884;8.696;2023-01-28T06:24:37;99514.22;;;1.34;100.00
22743;BME280;11538;48.884;8.696;2023-01-28T06:27:03;99513.78;;;1.37;100.00
22743;BME280;11538;48.884;8.696;2023-01-28T06:29:30;99526.56;;;1.35;100.00
22743;BME280;11538;48.884;8.696;2023-01-28T06:31:57;99523.44;;;1.38;100.00
22743;BME280;11538;48.884;8.696;2023-01-28T06:34:24;99528.34;;;1.41;100.00
22743;BME280;11538;48.884;8.696;2023-01-28T06:36:51;99530.78;;;1.42;100.00
22743;BME280;11538;48.884;8.696;2023-01-28T06:39:21;99535.94;;;1.44;100.00
22743;BME280;11538;48.884;8.696;2023-01-28T06:41:49;99536.28;;;1.48;100.00
22743;BME280;11538;48.884;8.696;2023-01-28T06:44:16;99536.88;;;1.50;100.00
22743;BME280;11538;48.884;8.696;2023-01-28T06:46:43;99542.03;;;1.51;100.00
22743;BME280;11538;48.884;8.696;2023-01-28T06:49:10;99531.91;;;1.53;100.00
22743;BME280;11538;48.884;8.696;2023-01-28T06:51:37;99539.50;;;1.56;100.00
22743;BME280;11538;48.884;8.696;2023-01-28T06:54:03;99535.19;;;1.55;100.00
22743;BME280;11538;48.884;8.696;2023-01-28T06:56:30;99537.28;;;1.53;100.00
22743;BME280;11538;48.884;8.696;2023-01-28T06:58:57;99533.75;;;1.53;100.00
22743;BME280;11538;48.884;8.696;2023-01-28T07:01:24;99540.75;;;1.54;100.00
22743;BME280;11538;48.884;8.696;2023-01-28T07:03:51;99538.66;;;1.56;100.00
22743;BME280;11538;48.884;8.696;2023-01-28T07:06:18;99549.75;;;1.59;100.00
22743;BME280;11538;48.884;8.696;2023-01-28T07:08:45;99548.56;;;1.55;100.00
22743;BME280;11538;48.884;8.696;2023-01-28T07:11:12;99543.22;;;1.55;100.00
22743;BME280;11538;48.884;8.696;2023-01-28T07:13:39;99551.22;;;1.55;100.00
22743;BME280;11538;48.884;8.696;2023-01-28T07:16:06;99552.88;;;1.56;100.00
22743;BME280;11538;48.884;8.696;2023-01-28T07:18:33;99550.41;;;1.55;100.00
22743;BME280;11538;48.884;8.696;2023-01-28T07:21:00;99560.06;;;1.56;100.00
22743;BME280;11538;48.884;8.696;2023-01-28T07:23:27;99556.13;;;1.58;100.00
22743;BME280;11538;48.884;8.696;2023-01-28T07:25:54;99562.28;;;1.59;100.00
22743;BME280;11538;48.884;8.696;2023-01-28T07:28:27;99566.41;;;1.62;100.00
22743;BME280;11538;48.884;8.696;2023-01-28T07:30:54;99568.03;;;1.63;100.00
22743;BME280;11538;48.884;8.696;2023-01-28T07:33:20;99566.41;;;1.62;100.00
22743;BME280;11538;48.884;8.696;2023-01-28T07:35:47;99568.84;;;1.63;100.00
22743;BME280;11538;48.884;8.696;2023-01-28T07:38:14;99563.72;;;1.62;100.00
22743;BME280;11538;48.884;8.696;2023-01-28T07:40:41;99568.47;;;1.59;100.00
22743;BME280;11538;48.884;8.696;2023-01-28T07:43:08;99568.25;;;1.61;100.00
22743;BME280;11538;48.884;8.696;2023-01-28T07:45:35;99575.59;;;1.66;100.00
22743;BME280;11538;48.884;8.696;2023-01-28T07:48:05;99581.56;;;1.68;100.00
22743;BME280;11538;48.884;8.696;2023-01-28T07:50:35;99575.81;;;1.64;100.00
22743;BME280;11538;48.884;8.696;2023-01-28T07:53:03;99574.78;;;1.65;100.00
22743;BME280;11538;48.884;8.696;2023-01-28T07:55:30;99582.59;;;1.67;100.00
22743;BME280;11538;48.884;8.696;2023-01-28T07:57:58;99580.13;;;1.65;100.00
22743;BME280;11538;48.884;8.696;2023-01-28T08:00:28;99583.56;;;1.72;100.00
22743;BME280;11538;48.884;8.696;2023-01-28T08:02:56;99582.50;;;1.73;100.00
22743;BME280;11538;48.884;8.696;2023-01-28T08:05:25;99582.97;;;1.70;100.00
22743;BME280;11538;48.884;8.696;2023-01-28T08:07:56;99585.41;;;1.72;100.00
22743;BME280;11538;48.884;8.696;2023-01-28T08:10:23;99586.81;;;1.74;100.00
22743;BME280;11538;48.884;8.696;2023-01-28T08:12:55;99591.22;;;1.87;100.00
22743;BME280;11538;48.884;8.696;2023-01-28T08:15:24;99588.94;;;2.10;100.00
22743;BME280;11538;48.884;8.696;2023-01-28T08:17:58;99589.88;;;2.15;100.00
22743;BME280;11538;48.884;8.696;2023-01-28T08:20:27;99594.50;;;2.08;100.00
22743;BME280;11538;48.884;8.696;2023-01-28T08:23:05;99597.25;;;2.01;100.00
22743;BME280;11538;48.884;8.696;2023-01-28T08:25:32;99599.09;;;2.01;100.00
22743;BME280;11538;48.884;8.696;2023-01-28T08:27:59;99602.09;;;1.93;100.00
22743;BME280;11538;48.884;8.696;2023-01-28T08:30:26;99601.41;;;1.97;100.00
22743;BME280;11538;48.884;8.696;2023-01-28T08:32:57;99600.59;;;1.97;100.00
22743;BME280;11538;48.884;8.696;2023-01-28T08:35:25;99604.06;;;1.97;100.00
22743;BME280;11538;48.884;8.696;2023-01-28T08:37:53;99609.00;;;2.00;100.00
22743;BME280;11538;48.884;8.696;2023-01-28T08:40:20;99604.47;;;2.01;100.00
22743;BME280;11538;48.884;8.696;2023-01-28T08:42:48;99609.22;;;1.99;100.00
22743;BME280;11538;48.884;8.696;2023-01-28T08:45:16;99602.44;;;1.96;100.00
22743;BME280;11538;48.884;8.696;2023-01-28T08:50:20;99602.09;;;1.93;100.00
22743;BME280;11538;48.884;8.696;2023-01-28T08:52:47;99617.31;;;1.92;100.00
22743;BME280;11538;48.884;8.696;2023-01-28T08:55:16;99611.16;;;1.92;100.00
22743;BME280;11538;48.884;8.696;2023-01-28T08:57:44;99614.56;;;1.99;100.00
22743;BME280;11538;48.884;8.696;2023-01-28T09:00:12;99614.72;;;2.04;100.00
22743;BME280;11538;48.884;8.696;2023-01-28T09:02:39;99613.47;;;2.07;100.00
22743;BME280;11538;48.884;8.696;2023-01-28T09:05:07;99613.47;;;2.07;100.00
22743;BME280;11538;48.884;8.696;2023-01-28T09:07:34;99622.53;;;2.06;100.00
22743;BME280;11538;48.884;8.696;2023-01-28T09:10:02;99618.81;;;2.07;100.00
22743;BME280;11538;48.884;8.696;2023-01-28T09:12:30;99621.06;;;2.10;100.00
22743;BME280;11538;48.884;8.696;2023-01-28T09:14:57;99616.75;;;2.09;100.00
22743;BME280;11538;48.884;8.696;2023-01-28T09:17:24;99625.56;;;2.09;100.00
22743;BME280;11538;48.884;8.696;2023-01-28T09:19:51;99634.44;;;2.10;100.00
22743;BME280;11538;48.884;8.696;2023-01-28T09:22:18;99634.78;;;2.13;100.00
22743;BME280;11538;48.884;8.696;2023-01-28T09:24:45;99632.94;;;2.14;100.00
22743;BME280;11538;48.884;8.696;2023-01-28T09:27:12;99632.13;;;2.13;100.00
22743;BME280;11538;48.884;8.696;2023-01-28T09:29:39;99637.72;;;2.12;100.00
22743;BME280;11538;48.884;8.696;2023-01-28T09:32:06;99641.41;;;2.11;100.00
22743;BME280;11538;48.884;8.696;2023-01-28T09:34:33;99637.31;;;2.08;100.00
22743;BME280;11538;48.884;8.696;2023-01-28T09:37:00;99638.34;;;2.07;100.00
22743;BME280;11538;48.884;8.696;2023-01-28T09:39:27;99650.25;;;2.11;100.00
22743;BME280;11538;48.884;8.696;2023-01-28T09:45:00;99650.84;;;2.13;100.00
22743;BME280;11538;48.884;8.696;2023-01-28T09:47:34;99655.16;;;2.14;100.00
22743;BME280;11538;48.884;8.696;2023-01-28T09:50:11;99654.13;;;2.15;100.00
22743;BME280;11538;48.884;8.696;2023-01-28T09:52:40;99662.16;;;2.15;100.00
22743;BME280;11538;48.884;8.696;2023-01-28T09:57:56;99654.50;;;2.19;100.00
22743;BME280;11538;48.884;8.696;2023-01-28T10:00:28;99664.63;;;2.17;100.00
22743;BME280;11538;48.884;8.696;2023-01-28T10:05:58;99664.97;;;2.21;100.00
22743;BME280;11538;48.884;8.696;2023-01-28T10:08:59;99665.88;;;2.14;100.00
22743;BME280;11538;48.884;8.696;2023-01-28T10:11:45;99656.22;;;2.13;100.00
22743;BME280;11538;48.884;8.696;2023-01-28T10:19:52;99655.03;;;2.28;100.00
22743;BME280;11538;48.884;8.696;2023-01-28T10:22:25;99654.88;;;2.23;100.00
22743;BME280;11538;48.884;8.696;2023-01-28T10:24:57;99647.88;;;2.22;100.00
22743;BME280;11538;48.884;8.696;2023-01-28T10:27:32;99642.91;;;2.25;100.00
22743;BME280;11538;48.884;8.696;2023-01-28T10:30:22;99635.47;;;2.27;100.00
22743;BME280;11538;48.884;8.696;2023-01-28T10:32:54;99643.25;;;2.29;100.00
22743;BME280;11538;48.884;8.696;2023-01-28T10:35:22;99643.84;;;2.31;100.00
22743;BME280;11538;48.884;8.696;2023-01-28T10:37:52;99641.63;;;2.28;100.00
22743;BME280;11538;48.884;8.696;2023-01-28T10:40:21;99633.75;;;2.33;100.00
22743;BME280;11538;48.884;8.696;2023-01-28T10:42:47;99647.50;;;2.37;100.00
22743;BME280;11538;48.884;8.696;2023-01-28T10:45:21;99640.28;;;2.37;100.00
22743;BME280;11538;48.884;8.696;2023-01-28T10:50:49;99640.66;;;2.41;100.00
22743;BME280;11538;48.884;8.696;2023-01-28T10:53:16;99646.69;;;2.36;100.00
22743;BME280;11538;48.884;8.696;2023-01-28T10:55:57;99653.06;;;2.35;100.00
22743;BME280;11538;48.884;8.696;2023-01-28T10:58:27;99645.88;;;2.36;100.00
22743;BME280;11538;48.884;8.696;2023-01-28T11:01:04;99649.16;;;2.38;100.00
22743;BME280;11538;48.884;8.696;2023-01-28T11:03:31;99655.44;;;2.43;100.00
22743;BME280;11538;48.884;8.696;2023-01-28T11:06:01;99652.47;;;2.52;100.00
22743;BME280;11538;48.884;8.696;2023-01-28T11:08:29;99653.50;;;2.51;100.00
22743;BME280;11538;48.884;8.696;2023-01-28T11:10:56;99649.66;;;2.46;100.00
22743;BME280;11538;48.884;8.696;2023-01-28T11:13:28;99659.09;;;2.49;100.00
22743;BME280;11538;48.884;8.696;2023-01-28T11:16:02;99653.31;;;2.52;100.00
22743;BME280;11538;48.884;8.696;2023-01-28T11:18:34;99644.09;;;2.48;100.00
22743;BME280;11538;48.884;8.696;2023-01-28T11:21:16;99648.41;;;2.49;100.00
22743;BME280;11538;48.884;8.696;2023-01-28T11:23:56;99647.34;;;2.50;100.00
22743;BME280;11538;48.884;8.696;2023-01-28T11:26:28;99651.22;;;2.54;100.00
22743;BME280;11538;48.884;8.696;2023-01-28T11:28:57;99647.03;;;2.58;100.00
22743;BME280;11538;48.884;8.696;2023-01-28T11:31:25;99650.44;;;2.66;100.00
22743;BME280;11538;48.884;8.696;2023-01-28T11:33:59;99658.28;;;2.67;100.00
22743;BME280;11538;48.884;8.696;2023-01-28T11:36:32;99653.34;;;2.64;100.00
22743;BME280;11538;48.884;8.696;2023-01-28T11:39:02;99653.19;;;2.59;100.00
22743;BME280;11538;48.884;8.696;2023-01-28T11:41:35;99651.50;;;2.65;100.00
22743;BME280;11538;48.884;8.696;2023-01-28T11:44:18;99641.63;;;2.65;100.00
22743;BME280;11538;48.884;8.696;2023-01-28T11:47:06;99650.00;;;2.69;100.00
22743;BME280;11538;48.884;8.696;2023-01-28T11:52:38;99654.38;;;2.63;100.00
22743;BME280;11538;48.884;8.696;2023-01-28T11:58:47;99654.56;;;2.68;100.00
22743;BME280;11538;48.884;8.696;2023-01-28T12:01:23;99663.63;;;2.67;100.00
22743;BME280;11538;48.884;8.696;2023-01-28T12:04:17;99659.00;;;2.56;100.00
22743;BME280;11538;48.884;8.696;2023-01-28T12:09:57;99658.22;;;2.55;100.00
22743;BME280;11538;48.884;8.696;2023-01-28T12:18:40;99660.00;;;2.43;100.00
22743;BME280;11538;48.884;8.696;2023-01-28T12:29:33;99665.66;;;2.34;100.00
22743;BME280;11538;48.884;8.696;2023-01-28T12:32:28;99659.03;;;2.37;100.00
22743;BME280;11538;48.884;8.696;2023-01-28T12:35:46;99665.06;;;2.32;100.00
22743;BME280;11538;48.884;8.696;2023-01-28T12:38:47;99661.13;;;2.35;100.00
22743;BME280;11538;48.884;8.696;2023-01-28T12:41:21;99660.06;;;2.36;100.00
22743;BME280;11538;48.884;8.696;2023-01-28T12:43:52;99650.66;;;2.33;100.00
22743;BME280;11538;48.884;8.696;2023-01-28T12:46:37;99646.69;;;2.36;100.00
22743;BME280;11538;48.884;8.696;2023-01-28T12:54:39;99639.94;;;2.33;100.00
22743;BME280;11538;48.884;8.696;2023-01-28T12:57:18;99637.91;;;2.29;100.00
22743;BME280;11538;48.884;8.696;2023-01-28T13:03:13;99633.09;;;2.38;100.00
22743;BME280;11538;48.884;8.696;2023-01-28T13:05:50;99636.56;;;2.38;100.00
22743;BME280;11538;48.884;8.696;2023-01-28T13:08:23;99637.41;;;2.39;100.00
22743;BME280;11538;48.884;8.696;2023-01-28T13:10:51;99640.66;;;2.41;100.00
22743;BME280;11538;48.884;8.696;2023-01-28T13:15:53;99647.22;;;2.45;100.00
22743;BME280;11538;48.884;8.696;2023-01-28T13:20:56;99641.91;;;2.38;100.00
22743;BME280;11538;48.884;8.696;2023-01-28T13:28:51;99644.38;;;2.40;100.00
22743;BME280;11538;48.884;8.696;2023-01-28T13:31:20;99652.41;;;2.40;100.00
22743;BME280;11538;48.884;8.696;2023-01-28T13:34:00;99648.56;;;2.36;100.00
22743;BME280;11538;48.884;8.696;2023-01-28T13:36:30;99641.56;;;2.34;100.00
22743;BME280;11538;48.884;8.696;2023-01-28T13:41:54;99646.69;;;2.36;100.00
22743;BME280;11538;48.884;8.696;2023-01-28T13:44:29;99647.97;;;2.33;100.00
22743;BME280;11538;48.884;8.696;2023-01-28T13:47:14;99648.31;;;2.37;100.00
22743;BME280;11538;48.884;8.696;2023-01-28T13:50:03;99659.63;;;2.39;100.00
22743;BME280;11538;48.884;8.696;2023-01-28T13:52:41;99654.06;;;2.41;100.00
22743;BME280;11538;48.884;8.696;2023-01-28T14:08:38;99676.44;;;2.46;100.00
22743;BME280;11538;48.884;8.696;2023-01-28T14:11:13;99672.72;;;2.47;100.00
22743;BME280;11538;48.884;8.696;2023-01-28T14:14:19;99677.47;;;2.45;100.00
22743;BME280;11538;48.884;8.696;2023-01-28T14:17:16;99678.66;;;2.49;100.00
22743;BME280;11538;48.884;8.696;2023-01-28T14:19:47;99684.59;;;2.52;100.00
22743;BME280;11538;48.884;8.696;2023-01-28T14:22:18;99679.03;;;2.53;100.00
22743;BME280;11538;48.884;8.696;2023-01-28T14:24:46;99687.28;;;2.52;100.00
22743;BME280;11538;48.884;8.696;2023-01-28T14:27:28;99690.56;;;2.54;100.00
22743;BME280;11538;48.884;8.696;2023-01-28T14:30:12;99698.25;;;2.50;100.00
22743;BME280;11538;48.884;8.696;2023-01-28T14:32:50;99694.06;;;2.54;100.00
22743;BME280;11538;48.884;8.696;2023-01-28T14:35:29;99695.72;;;2.55;100.00
22743;BME280;11538;48.884;8.696;2023-01-28T14:37:58;99703.75;;;2.55;100.00
22743;BME280;11538;48.884;8.696;2023-01-28T14:40:27;99701.50;;;2.52;100.00
22743;BME280;11538;48.884;8.696;2023-01-28T14:42:56;99705.00;;;2.53;100.00
22743;BME280;11538;48.884;8.696;2023-01-28T14:51:10;99711.03;;;2.48;100.00
22743;BME280;11538;48.884;8.696;2023-01-28T14:59:16;99723.75;;;2.53;100.00
22743;BME280;11538;48.884;8.696;2023-01-28T15:01:46;99722.09;;;2.52;100.00
22743;BME280;11538;48.884;8.696;2023-01-28T15:04:30;99723.38;;;2.49;100.00
22743;BME280;11538;48.884;8.696;2023-01-28T15:07:01;99722.09;;;2.52;100.00
22743;BME280;11538;48.884;8.696;2023-01-28T15:09:40;99733.66;;;2.52;100.00
22743;BME280;11538;48.884;8.696;2023-01-28T15:12:08;99729.78;;;2.48;100.00
22743;BME280;11538;48.884;8.696;2023-01-28T15:14:35;99734.53;;;2.46;100.00
22743;BME280;11538;48.884;8.696;2023-01-28T15:17:02;99730.00;;;2.46;100.00
22743;BME280;11538;48.884;8.696;2023-01-28T15:19:32;99733.72;;;2.45;100.00